createdAt,value
2023-05-14T00:04:50.066Z,8.71
2023-05-14T00:09:55.899Z,8.67
2023-05-14T00:14:59.867Z,8.61
2023-05-14T00:20:07.340Z,8.55
2023-05-14T00:25:13.944Z,8.43
2023-05-14T00:30:18.121Z,8.50
2023-05-14T00:35:22.953Z,8.40
2023-05-14T00:40:29.880Z,8.24
2023-05-14T00:45:34.155Z,8.34
2023-05-14T00:50:39.226Z,8.34
2023-05-14T00:55:45.934Z,8.26
2023-05-14T01:00:50.304Z,8.47
2023-05-14T01:06:02.801Z,8.30
2023-05-14T01:11:13.509Z,8.28
2023-05-14T01:16:20.360Z,8.32
2023-05-14T01:21:35.963Z,8.23
2023-05-14T01:26:39.856Z,8.22
2023-05-14T01:31:47.708Z,8.13
2023-05-14T01:36:55.077Z,8.05
2023-05-14T01:41:59.521Z,8.04
2023-05-14T01:47:04.961Z,7.98
2023-05-14T01:52:14.317Z,8.13
2023-05-14T01:57:18.436Z,8.05
2023-05-14T02:02:23.194Z,7.94
2023-05-14T02:07:28.988Z,8.07
2023-05-14T02:12:33.661Z,7.99
2023-05-14T02:17:38.309Z,7.75
2023-05-14T02:22:46.444Z,7.82
2023-05-14T02:27:50.975Z,7.83
2023-05-14T02:32:55.231Z,7.92
2023-05-14T02:38:00.969Z,7.82
2023-05-14T02:43:06.337Z,7.70
2023-05-14T02:48:10.609Z,7.73
2023-05-14T02:53:17.105Z,7.58
2023-05-14T02:58:26.030Z,7.60
2023-05-14T03:03:33.006Z,7.72
2023-05-14T03:08:41.813Z,7.96
2023-05-14T03:13:45.856Z,8.06
2023-05-14T03:18:50.665Z,8.23
2023-05-14T03:23:57.473Z,8.30
2023-05-14T03:29:01.407Z,8.36
2023-05-14T03:34:05.541Z,8.39
2023-05-14T03:39:11.493Z,8.54
2023-05-14T03:44:15.824Z,8.65
2023-05-14T03:49:20.109Z,8.89
2023-05-14T03:54:26.296Z,9.10
2023-05-14T03:59:30.701Z,9.37
2023-05-14T04:04:34.762Z,9.71
2023-05-14T04:09:42.025Z,10.08
2023-05-14T04:14:46.801Z,10.36
2023-05-14T04:19:51.597Z,10.61
2023-05-14T04:24:57.837Z,10.86
2023-05-14T04:30:02.505Z,11.15
2023-05-14T04:35:10.674Z,11.48
2023-05-14T04:40:17.134Z,11.76
2023-05-14T04:45:21.530Z,12.07
2023-05-14T04:50:27.473Z,12.33
2023-05-14T04:55:35.464Z,12.56
2023-05-14T05:00:40.358Z,12.85
2023-05-14T05:05:45.255Z,13.17
2023-05-14T05:10:51.349Z,13.66
2023-05-14T05:15:55.500Z,13.90
2023-05-14T05:21:00.679Z,14.25
2023-05-14T05:26:07.470Z,14.44
2023-05-14T05:31:12.050Z,14.92
2023-05-14T05:36:16.441Z,15.07
2023-05-14T05:41:22.742Z,15.28
2023-05-14T05:46:27.351Z,15.61
2023-05-14T05:51:32.103Z,15.77
2023-05-14T05:56:38.140Z,16.17
2023-05-14T06:01:43.951Z,16.39
2023-05-14T06:06:48.149Z,16.48
2023-05-14T06:11:55.565Z,16.74
2023-05-14T06:17:01.992Z,16.97
2023-05-14T06:22:07.066Z,17.19
2023-05-14T06:27:13.919Z,17.43
2023-05-14T06:32:18.193Z,17.76
2023-05-14T06:37:23.250Z,17.96
2023-05-14T06:42:31.038Z,18.29
2023-05-14T06:47:36.957Z,18.59
2023-05-14T06:52:41.586Z,18.62
2023-05-14T07:17:19.768Z,20.09
2023-05-14T07:22:23.281Z,19.89
2023-05-14T07:27:27.174Z,19.92
2023-05-14T07:32:32.322Z,20.06
2023-05-14T07:37:36.030Z,20.59
2023-05-14T07:42:39.480Z,20.61
2023-05-14T07:47:44.609Z,21.22
2023-05-14T07:52:48.091Z,21.60
2023-05-14T07:57:51.518Z,21.36
2023-05-14T08:02:56.885Z,21.34
2023-05-14T08:08:00.468Z,21.19
2023-05-14T08:13:03.959Z,21.41
2023-05-14T08:18:08.924Z,21.52
2023-05-14T08:23:12.624Z,22.03
2023-05-14T08:28:15.998Z,21.68
2023-05-14T08:33:20.822Z,22.03
2023-05-14T08:38:24.232Z,21.96
2023-05-14T08:43:31.966Z,22.18
2023-05-14T08:48:37.883Z,22.00
2023-05-14T08:53:41.957Z,23.19
2023-05-14T08:58:45.932Z,23.13
2023-05-14T09:03:51.791Z,21.83
2023-05-14T09:08:56.073Z,22.96
2023-05-14T09:13:59.856Z,23.66
2023-05-14T09:19:05.133Z,23.62
2023-05-14T09:24:09.973Z,22.88
2023-05-14T09:29:13.653Z,23.84
2023-05-14T09:34:25.485Z,23.26
2023-05-14T09:39:29.425Z,23.06
2023-05-14T09:44:33.340Z,22.95
2023-05-14T09:49:38.178Z,22.76
2023-05-14T09:54:42.360Z,22.94
2023-05-14T09:59:45.897Z,23.01
2023-05-14T10:04:53.147Z,22.83
2023-05-14T10:10:03.314Z,23.56
2023-05-14T10:15:18.342Z,23.10
2023-05-14T10:20:25.279Z,23.03
2023-05-14T10:25:29.689Z,22.94
2023-05-14T10:30:33.859Z,22.43
2023-05-14T10:36:03.631Z,22.31
2023-05-14T10:41:10.940Z,21.98
2023-05-14T10:46:16.256Z,21.52
2023-05-14T10:51:23.228Z,21.54
2023-05-14T10:56:27.716Z,21.20
2023-05-14T11:01:32.216Z,21.07
2023-05-14T11:06:43.369Z,21.62
2023-05-14T11:11:47.847Z,21.26
2023-05-14T11:16:52.132Z,20.92
2023-05-14T11:21:57.965Z,20.79
2023-05-14T11:27:03.830Z,20.81
2023-05-14T11:32:08.552Z,20.32
2023-05-14T11:37:16.520Z,20.07
2023-05-14T11:42:22.587Z,20.25
2023-05-14T11:47:26.761Z,20.29
2023-05-14T11:52:32.917Z,19.66
2023-05-14T11:57:37.782Z,19.78
2023-05-14T12:02:42.122Z,19.95
2023-05-14T12:07:49.293Z,19.84
2023-05-14T12:12:55.207Z,19.92
2023-05-14T12:18:02.041Z,19.92
2023-05-14T12:23:12.009Z,19.91
2023-05-14T12:28:17.313Z,20.00
2023-05-14T12:33:23.418Z,20.10
2023-05-14T12:38:31.732Z,20.23
2023-05-14T12:43:35.613Z,19.73
2023-05-14T12:48:41.712Z,19.37
2023-05-14T12:53:47.986Z,19.43
2023-05-14T12:58:51.778Z,19.59
2023-05-14T13:03:55.797Z,19.83
2023-05-14T13:09:04.234Z,20.07
2023-05-14T13:14:10.146Z,20.20
2023-05-14T13:19:16.995Z,20.55
2023-05-14T13:24:25.348Z,20.23
2023-05-14T13:29:31.680Z,20.22
2023-05-14T13:34:35.747Z,20.57
2023-05-14T13:39:41.798Z,20.50
2023-05-14T13:44:45.674Z,20.13
2023-05-14T13:49:49.496Z,20.46
2023-05-14T13:54:54.739Z,20.42
2023-05-14T14:00:00.867Z,20.29
2023-05-14T14:05:14.670Z,20.01
2023-05-14T14:10:21.019Z,19.98
2023-05-14T14:15:25.366Z,19.74
2023-05-14T14:20:32.155Z,19.36
2023-05-14T14:25:39.020Z,19.87
2023-05-14T14:30:44.259Z,19.47
2023-05-14T14:35:48.269Z,19.71
2023-05-14T14:40:53.850Z,19.34
2023-05-14T14:46:00.254Z,18.98
2023-05-14T14:51:05.999Z,19.04
2023-05-14T14:56:11.754Z,18.89
2023-05-14T15:01:18.335Z,18.89
2023-05-14T15:06:23.218Z,18.56
2023-05-14T15:11:30.218Z,18.59
2023-05-14T15:16:34.191Z,18.35
2023-05-14T15:21:38.298Z,18.17
2023-05-14T15:26:43.957Z,18.20
2023-05-14T15:31:47.852Z,18.15
2023-05-14T15:36:51.722Z,18.02
2023-05-14T15:41:57.394Z,17.75
2023-05-14T15:47:01.207Z,17.71
2023-05-14T15:52:05.176Z,17.57
2023-05-14T15:57:10.504Z,17.58
2023-05-14T16:02:15.104Z,17.38
2023-05-14T16:07:18.890Z,17.32
2023-05-14T16:12:24.561Z,17.18
2023-05-14T16:17:28.686Z,17.02
2023-05-14T16:22:34.822Z,16.67
2023-05-14T16:27:40.678Z,16.27
2023-05-14T16:32:46.785Z,16.17
2023-05-14T16:37:51.656Z,16.11
2023-05-14T16:42:57.215Z,15.73
2023-05-14T16:48:01.880Z,15.80
2023-05-14T16:53:05.863Z,15.66
2023-05-14T16:58:11.398Z,15.75
2023-05-14T17:03:15.242Z,15.47
2023-05-14T17:08:19.545Z,15.22
2023-05-14T17:13:25.260Z,15.06
2023-05-14T17:18:28.967Z,14.88
2023-05-14T17:23:32.856Z,14.74
2023-05-14T17:28:38.280Z,14.96
2023-05-14T17:33:42.388Z,14.57
2023-05-14T17:38:46.162Z,14.53
2023-05-14T17:43:52.604Z,14.67
2023-05-14T17:48:56.625Z,14.36
2023-05-14T17:54:03.017Z,14.22
2023-05-14T17:59:08.223Z,14.09
2023-05-14T18:04:15.129Z,14.02
2023-05-14T18:09:19.366Z,14.07
2023-05-14T18:14:24.738Z,13.76
2023-05-14T18:19:28.498Z,13.83
2023-05-14T18:24:32.167Z,13.63
2023-05-14T18:29:39.690Z,13.73
2023-05-14T18:34:44.216Z,13.58
2023-05-14T18:39:48.190Z,13.41
2023-05-14T18:44:55.012Z,13.44
2023-05-14T18:50:00.644Z,13.54
2023-05-14T18:55:07.481Z,13.48
2023-05-14T19:00:18.136Z,13.40
2023-05-14T19:05:23.030Z,13.32
2023-05-14T19:11:25.404Z,13.39
2023-05-14T19:17:30.848Z,13.37
2023-05-14T19:23:58.695Z,13.33
2023-05-14T19:29:49.151Z,13.20
2023-05-14T19:35:09.170Z,13.14
2023-05-14T19:40:13.733Z,13.08
2023-05-14T19:45:19.243Z,13.22
2023-05-14T19:50:23.338Z,13.20
2023-05-14T19:55:28.001Z,13.03
2023-05-14T20:00:35.010Z,13.17
2023-05-14T20:05:39.815Z,12.97
2023-05-14T20:10:45.814Z,12.98
2023-05-14T20:15:52.575Z,12.89
2023-05-14T20:20:57.638Z,13.00
2023-05-14T20:26:02.559Z,12.81
2023-05-14T20:31:09.789Z,12.87
2023-05-14T20:36:15.243Z,12.85
2023-05-14T20:41:21.052Z,12.71
2023-05-14T20:46:27.142Z,12.66
2023-05-14T20:51:31.914Z,12.71
2023-05-14T20:56:36.831Z,12.52
2023-05-14T21:01:42.798Z,12.48
2023-05-14T21:06:46.995Z,12.44
2023-05-14T21:11:51.053Z,12.55
2023-05-14T21:16:57.109Z,12.42
2023-05-14T21:22:01.142Z,12.46
2023-05-14T21:27:05.789Z,12.45
2023-05-14T21:32:12.077Z,12.36
2023-05-14T21:37:17.596Z,12.24
2023-05-14T21:42:22.798Z,12.20
2023-05-14T21:47:29.062Z,12.25
2023-05-14T21:52:33.782Z,12.28
2023-05-14T21:57:38.857Z,11.98
2023-05-14T22:02:45.051Z,12.11
2023-05-14T22:07:49.804Z,11.79
2023-05-14T22:12:54.946Z,12.05
2023-05-14T22:18:01.887Z,12.11
2023-05-14T22:23:06.502Z,12.10
2023-05-14T22:28:11.796Z,12.06
2023-05-14T22:33:19.409Z,12.15
2023-05-14T22:38:24.805Z,12.15
2023-05-14T22:43:29.464Z,12.06
2023-05-14T22:48:35.456Z,11.93
2023-05-14T22:53:40.790Z,12.02
2023-05-14T22:58:44.895Z,12.02
2023-05-14T23:03:51.276Z,11.92
2023-05-14T23:08:55.428Z,11.87
2023-05-14T23:13:59.615Z,11.97
2023-05-14T23:19:05.611Z,11.98
2023-05-14T23:24:10.323Z,12.00
2023-05-14T23:29:14.475Z,11.95
2023-05-14T23:34:22.331Z,12.10
2023-05-14T23:39:27.998Z,11.93
2023-05-14T23:44:33.411Z,12.00
2023-05-14T23:49:40.970Z,12.09
2023-05-14T23:54:46.100Z,12.17
2023-05-14T23:59:50.867Z,11.99
